Time;durP1;ratioP1;P1;durP2;ratioP2;P2;SDS_P1;SDS_P2;PMS_P1;PMS_P2;Temp;Humidity;BMP_temperature;BMP_pressure;BME280_temperature;BME280_humidity;BME280_pressure;Samples;Min_cycle;Max_cycle;Signal;HPM_P1;HPM_P2
2022/09/22 00:01:07;;;;;;;6.45;4.43;;;;;;;19.54;45.12;102421.94;5012886;28;20037;-74
2022/09/22 00:03:35;;;;;;;6.30;4.40;;;;;;;19.53;45.29;102420.22;5012396;28;20022;-73
2022/09/22 00:06:04;;;;;;;6.38;4.90;;;;;;;19.50;45.28;102412.53;5012330;28;20389;-74
2022/09/22 00:08:32;;;;;;;8.48;4.72;;;;;;;19.52;45.27;102412.44;5012414;28;20029;-74
2022/09/22 00:11:00;;;;;;;8.32;4.97;;;;;;;19.47;45.09;102406.56;5013028;28;20529;-74
2022/09/22 00:13:25;;;;;;;6.85;4.93;;;;;;;19.44;45.16;102399.69;5011910;28;20025;-75
2022/09/22 00:15:50;;;;;;;6.40;4.43;;;;;;;19.44;45.29;102404.97;5011939;28;20045;-73
2022/09/22 00:18:15;;;;;;;7.00;4.27;;;;;;;19.45;45.09;102411.94;5012505;28;20037;-74
2022/09/22 00:20:41;;;;;;;6.70;4.57;;;;;;;19.42;45.41;102401.53;5012588;28;20275;-73
2022/09/22 00:23:06;;;;;;;6.78;4.65;;;;;;;19.37;44.72;102399.19;5012146;28;20254;-74
2022/09/22 00:25:31;;;;;;;7.13;5.00;;;;;;;19.40;44.93;102395.50;5011853;28;20029;-74
2022/09/22 00:27:56;;;;;;;6.78;4.47;;;;;;;19.44;45.10;102412.03;5012007;28;20286;-72
2022/09/22 00:30:23;;;;;;;6.93;4.70;;;;;;;19.36;45.29;102399.31;5011623;28;20131;-72
2022/09/22 00:32:48;;;;;;;6.53;4.55;;;;;;;19.39;45.07;102409.66;5011624;28;20037;-74
2022/09/22 00:35:13;;;;;;;7.50;4.68;;;;;;;19.38;44.91;102408.81;5012433;28;20445;-75
2022/09/22 00:37:38;;;;;;;6.38;4.20;;;;;;;19.37;45.10;102408.94;5012101;28;20492;-73
2022/09/22 00:40:04;;;;;;;7.83;4.73;;;;;;;19.34;45.16;102407.34;5011692;28;20155;-73
2022/09/22 00:42:31;;;;;;;7.90;4.95;;;;;;;19.31;45.25;102409.31;5011570;28;20611;-74
2022/09/22 00:44:56;;;;;;;6.70;4.88;;;;;;;19.29;45.11;102403.25;5011862;28;20041;-74
2022/09/22 00:47:44;;;;;;;6.60;4.60;;;;;;;19.23;45.15;102398.34;5012064;28;20029;-74
2022/09/22 00:50:17;;;;;;;6.95;4.65;;;;;;;19.30;44.97;102412.91;5012269;28;20029;-73
2022/09/22 00:52:55;;;;;;;6.75;4.55;;;;;;;19.27;44.98;102402.53;5011999;28;20030;-74
2022/09/22 00:56:02;;;;;;;6.25;4.47;;;;;;;19.25;45.05;102404.38;5011865;28;20040;-75
2022/09/22 00:58:35;;;;;;;6.90;4.88;;;;;;;19.22;45.21;102394.88;5009165;28;20124;-73
2022/09/22 01:01:01;;;;;;;6.90;4.70;;;;;;;19.19;44.92;102389.78;5011390;28;20026;-74
2022/09/22 01:03:28;;;;;;;5.93;4.45;;;;;;;19.19;44.91;102385.31;5011691;28;20048;-74
2022/09/22 01:05:58;;;;;;;6.50;4.43;;;;;;;19.20;45.03;102387.03;5011569;28;20063;-73
2022/09/22 01:08:24;;;;;;;5.68;4.43;;;;;;;19.22;45.10;102392.22;5011539;28;20065;-74
2022/09/22 01:10:51;;;;;;;6.47;4.88;;;;;;;19.11;45.15;102374.38;5011267;28;20057;-73
2022/09/22 01:13:24;;;;;;;5.82;4.05;;;;;;;19.14;44.93;102376.00;5011369;28;20044;-73
2022/09/22 01:16:14;;;;;;;6.80;4.93;;;;;;;19.14;45.06;102371.56;5011824;28;20470;-72
2022/09/22 01:19:01;;;;;;;8.32;5.00;;;;;;;19.16;44.71;102377.59;5011145;28;20073;-73
2022/09/22 01:21:38;;;;;;;6.47;4.70;;;;;;;19.16;44.77;102376.75;5011682;28;21098;-73
2022/09/22 01:24:40;;;;;;;6.65;4.82;;;;;;;19.14;44.96;102376.84;5011069;28;20036;-74
2022/09/22 01:27:43;;;;;;;7.65;4.60;;;;;;;19.12;44.95;102370.81;5011225;28;20057;-74
2022/09/22 01:30:20;;;;;;;8.43;4.60;;;;;;;19.04;44.69;102354.56;5011366;28;20474;-74
2022/09/22 01:33:19;;;;;;;6.18;4.32;;;;;;;19.14;45.04;102370.72;5011116;28;20148;-73
2022/09/22 01:35:53;;;;;;;6.57;4.50;;;;;;;19.03;44.64;102353.72;5010994;28;20550;-74
2022/09/22 01:38:39;;;;;;;5.95;4.20;;;;;;;19.11;44.75;102362.97;5011316;28;20040;-74
2022/09/22 01:41:18;;;;;;;6.70;4.47;;;;;;;19.09;44.86;102359.56;5011579;28;20104;-74
2022/09/22 01:43:54;;;;;;;6.45;4.32;;;;;;;19.09;44.91;102363.06;5009702;28;20044;-75
2022/09/22 01:46:25;;;;;;;7.25;4.53;;;;;;;19.08;44.63;102364.00;5011046;28;20132;-74
2022/09/22 01:48:53;;;;;;;6.97;4.68;;;;;;;19.01;44.65;102345.03;5011081;28;20515;-74
2022/09/22 01:51:24;;;;;;;6.55;4.40;;;;;;;18.98;44.74;102344.38;5014321;28;20033;-73
2022/09/22 01:54:17;;;;;;;7.53;4.55;;;;;;;19.06;44.56;102351.81;5011564;28;20034;-74
2022/09/22 01:56:46;;;;;;;8.60;4.57;;;;;;;18.98;44.65;102339.94;5010760;28;20517;-73
2022/09/22 01:59:15;;;;;;;5.88;4.20;;;;;;;19.01;44.60;102347.69;5011154;28;20132;-74
2022/09/22 02:01:55;;;;;;;6.47;4.40;;;;;;;19.01;44.61;102339.75;5011322;28;20041;-73
2022/09/22 02:04:38;;;;;;;6.65;4.53;;;;;;;19.01;44.74;102346.84;5011803;28;20033;-74
2022/09/22 02:07:32;;;;;;;7.05;3.80;;;;;;;19.00;44.42;102345.13;5010963;28;20116;-73
2022/09/22 02:10:01;;;;;;;6.80;4.10;;;;;;;18.94;44.45;102337.56;5010476;28;20057;-73
2022/09/22 02:12:27;;;;;;;6.28;4.63;;;;;;;18.93;44.42;102330.59;5011425;28;20046;-73
2022/09/22 02:14:52;;;;;;;7.43;4.47;;;;;;;18.92;44.57;102334.19;5011655;28;20044;-73
2022/09/22 02:17:18;;;;;;;5.47;4.22;;;;;;;18.91;44.63;102329.84;5014774;28;20025;-73
2022/09/22 02:19:44;;;;;;;5.28;4.40;;;;;;;18.91;44.49;102330.69;5014398;28;20513;-74
2022/09/22 02:22:10;;;;;;;5.90;4.22;;;;;;;18.90;44.39;102330.78;5014773;28;20036;-74
2022/09/22 02:24:42;;;;;;;6.65;4.40;;;;;;;18.88;44.78;102322.94;5012338;28;20037;-74
2022/09/22 02:27:17;;;;;;;6.60;4.50;;;;;;;18.92;44.45;102324.47;5011872;28;20026;-72
2022/09/22 02:29:49;;;;;;;5.57;4.18;;;;;;;18.84;44.39;102316.16;5011923;28;20044;-74
2022/09/22 02:32:16;;;;;;;7.57;4.68;;;;;;;18.91;44.36;102327.19;5011510;28;20088;-73
2022/09/22 02:34:44;;;;;;;7.18;4.30;;;;;;;18.88;44.47;102322.94;5012911;28;20469;-73
2022/09/22 02:37:24;;;;;;;5.28;4.18;;;;;;;18.89;44.39;102326.44;5012492;28;20788;-73
2022/09/22 02:39:59;;;;;;;6.60;4.30;;;;;;;18.81;44.39;102305.75;5013176;28;20030;-73
2022/09/22 02:42:41;;;;;;;5.65;4.70;;;;;;;18.89;44.19;102321.16;5012692;28;20060;-73
2022/09/22 02:45:22;;;;;;;7.43;4.30;;;;;;;18.88;44.39;102316.81;5012214;28;20505;-72
2022/09/22 02:47:58;;;;;;;6.10;4.15;;;;;;;18.87;44.18;102313.34;5012688;28;20032;-75
2022/09/22 02:50:26;;;;;;;8.60;4.70;;;;;;;18.83;44.13;102306.50;5010655;28;20036;-73
2022/09/22 02:52:57;;;;;;;7.07;4.85;;;;;;;18.79;44.30;102300.56;5011180;28;20485;-75
2022/09/22 02:55:23;;;;;;;6.35;4.28;;;;;;;18.84;44.23;102314.34;5013303;28;20374;-74
2022/09/22 02:57:48;;;;;;;6.80;4.75;;;;;;;18.84;44.10;102310.88;5012453;28;20029;-74
2022/09/22 03:00:14;;;;;;;6.45;4.28;;;;;;;18.75;43.93;102291.13;5012002;28;20033;-73
2022/09/22 03:02:39;;;;;;;6.47;4.10;;;;;;;18.87;44.14;102299.25;5013454;28;20065;-73
2022/09/22 03:05:05;;;;;;;6.25;4.20;;;;;;;18.84;44.19;102284.47;5014111;28;20042;-73
2022/09/22 03:07:30;;;;;;;6.40;4.18;;;;;;;18.89;44.17;102290.31;5013669;28;20514;-74
2022/09/22 03:09:56;;;;;;;5.20;3.97;;;;;;;18.90;44.23;102291.16;5014228;28;20029;-74
2022/09/22 03:12:21;;;;;;;6.30;4.27;;;;;;;18.92;43.76;102284.00;5014055;28;20030;-74
2022/09/22 03:14:48;;;;;;;5.53;3.70;;;;;;;18.94;44.01;102288.22;5013831;28;20263;-75
2022/09/22 03:17:14;;;;;;;5.63;4.18;;;;;;;18.97;43.87;102287.19;5013658;28;20024;-73
2022/09/22 03:19:39;;;;;;;6.25;4.18;;;;;;;19.01;43.71;102294.84;5014236;28;20045;-74
2022/09/22 03:22:04;;;;;;;5.67;4.30;;;;;;;19.00;43.70;102289.66;5020172;28;20029;-73
2022/09/22 03:24:29;;;;;;;5.75;4.20;;;;;;;18.96;43.64;102281.06;5013037;28;20267;-74
2022/09/22 03:26:55;;;;;;;6.35;4.30;;;;;;;19.00;43.84;102290.47;5012151;28;20021;-74
2022/09/22 03:29:20;;;;;;;5.43;3.83;;;;;;;18.95;43.60;102279.38;5013215;28;20065;-73
2022/09/22 03:31:45;;;;;;;7.20;4.20;;;;;;;19.00;43.51;102287.00;5012947;28;20423;-74
2022/09/22 03:34:11;;;;;;;5.80;3.90;;;;;;;18.93;43.70;102275.97;5013397;28;20263;-75
2022/09/22 03:36:36;;;;;;;5.90;3.80;;;;;;;18.94;43.68;102276.81;5019836;28;20522;-74
2022/09/22 03:39:01;;;;;;;5.43;3.75;;;;;;;18.96;43.45;102281.06;5013433;28;20088;-73
2022/09/22 03:41:26;;;;;;;5.75;4.22;;;;;;;18.91;43.53;102275.19;5012511;28;20033;-73
2022/09/22 03:43:52;;;;;;;5.93;3.95;;;;;;;18.94;43.72;102282.09;5013104;28;20044;-73
2022/09/22 03:46:17;;;;;;;5.38;4.10;;;;;;;18.95;43.38;102283.81;5012776;28;20045;-74
2022/09/22 03:48:43;;;;;;;5.68;3.88;;;;;;;18.94;43.52;102280.28;5012548;28;20038;-74
2022/09/22 03:51:08;;;;;;;5.95;3.90;;;;;;;18.91;43.53;102274.38;5013392;28;20043;-75
2022/09/22 03:53:35;;;;;;;6.60;3.95;;;;;;;18.86;43.45;102274.66;5012185;28;20032;-72
2022/09/22 03:56:09;;;;;;;4.80;3.30;;;;;;;18.85;43.38;102272.97;5012705;28;20482;-72
2022/09/22 03:58:36;;;;;;;5.53;4.10;;;;;;;18.84;43.40;102273.91;5012204;28;20029;-74
2022/09/22 04:01:02;;;;;;;5.38;3.72;;;;;;;18.82;43.31;102268.69;5012434;28;20037;-73
2022/09/22 04:03:27;;;;;;;5.57;3.88;;;;;;;18.84;43.49;102272.09;5012832;28;20033;-74
2022/09/22 04:05:53;;;;;;;5.72;4.57;;;;;;;18.85;43.54;102284.38;5012431;28;20058;-73
2022/09/22 04:08:19;;;;;;;5.82;3.92;;;;;;;18.79;43.38;102274.16;5012629;28;20073;-73
2022/09/22 04:10:44;;;;;;;5.05;3.70;;;;;;;18.79;43.46;102268.03;5012400;28;20053;-74
2022/09/22 04:13:11;;;;;;;5.40;3.90;;;;;;;18.75;43.46;102255.94;5012865;28;20469;-72
2022/09/22 04:15:36;;;;;;;6.68;4.10;;;;;;;18.76;43.47;102261.13;5011255;28;20934;-73
2022/09/22 04:18:01;;;;;;;6.97;3.95;;;;;;;18.77;43.35;102264.63;5012114;28;20034;-74
2022/09/22 04:20:27;;;;;;;7.15;4.03;;;;;;;18.77;43.24;102268.13;5012445;28;20033;-74
2022/09/22 04:22:52;;;;;;;5.45;3.88;;;;;;;18.66;43.34;102250.28;5011271;28;20047;-73
2022/09/22 04:25:17;;;;;;;6.43;4.00;;;;;;;18.60;43.36;102242.75;5011488;28;20025;-74
2022/09/22 04:27:43;;;;;;;4.85;3.55;;;;;;;18.60;43.23;102242.75;5010257;28;20131;-73
2022/09/22 04:30:09;;;;;;;5.38;4.00;;;;;;;18.64;43.48;102249.53;5009911;28;20029;-74
2022/09/22 04:32:34;;;;;;;5.60;3.67;;;;;;;18.68;43.34;102256.31;5027242;28;20034;-75
2022/09/22 04:34:59;;;;;;;5.10;4.00;;;;;;;18.63;43.38;102258.41;5010409;28;20040;-73
2022/09/22 04:37:24;;;;;;;6.13;3.80;;;;;;;18.66;43.20;102260.84;5010419;28;20512;-74
2022/09/22 04:39:52;;;;;;;4.72;3.60;;;;;;;18.63;43.17;102250.47;5011446;28;20034;-74
2022/09/22 04:42:18;;;;;;;5.25;3.80;;;;;;;18.66;43.14;102250.28;5009331;28;20033;-73
2022/09/22 04:44:44;;;;;;;4.82;3.47;;;;;;;18.68;43.11;102247.56;5011866;28;20112;-75
2022/09/22 04:47:10;;;;;;;5.88;3.75;;;;;;;18.66;43.05;102245.00;5010893;28;20104;-74
2022/09/22 04:49:35;;;;;;;4.82;3.60;;;;;;;18.79;43.02;102268.88;5011436;28;20100;-73
2022/09/22 04:52:01;;;;;;;5.50;3.57;;;;;;;18.79;43.19;102254.81;5011028;28;20072;-74
2022/09/22 04:54:26;;;;;;;4.97;3.70;;;;;;;18.77;42.93;102251.41;5012022;28;20695;-74
2022/09/22 04:56:52;;;;;;;6.03;3.80;;;;;;;18.72;42.98;102246.41;5008064;28;20030;-75
2022/09/22 04:59:17;;;;;;;5.53;3.90;;;;;;;18.83;42.97;102254.53;5009751;28;20108;-74
2022/09/22 05:01:42;;;;;;;4.90;3.30;;;;;;;18.65;42.83;102230.09;5011348;28;20381;-73
2022/09/22 05:04:08;;;;;;;6.30;4.10;;;;;;;18.76;42.97;102250.56;5011027;28;20037;-74
2022/09/22 05:06:33;;;;;;;4.85;3.45;;;;;;;18.77;42.79;102252.28;5011525;28;20270;-74
2022/09/22 05:08:58;;;;;;;4.90;3.80;;;;;;;18.78;42.73;102259.22;5012052;28;20030;-75
2022/09/22 05:11:24;;;;;;;5.38;3.95;;;;;;;18.77;42.88;102254.91;5011311;28;20344;-74
2022/09/22 05:13:50;;;;;;;5.10;3.47;;;;;;;18.78;42.66;102261.03;5011530;28;20044;-74
2022/09/22 05:16:16;;;;;;;5.22;3.70;;;;;;;18.72;42.88;102250.84;5011887;28;20069;-75
2022/09/22 05:18:41;;;;;;;5.60;4.03;;;;;;;18.77;42.74;102262.84;5011452;28;20462;-75
2022/09/22 05:21:07;;;;;;;5.20;3.78;;;;;;;18.79;42.66;102268.03;5011143;28;20042;-74
2022/09/22 05:23:33;;;;;;;5.45;3.60;;;;;;;18.74;42.74;102262.16;5011087;28;20389;-74
2022/09/22 05:25:58;;;;;;;5.13;3.85;;;;;;;18.68;42.44;102252.84;5011510;28;20037;-73
2022/09/22 05:28:24;;;;;;;5.75;4.05;;;;;;;18.71;42.63;102262.34;5010601;28;20564;-73
2022/09/22 05:30:50;;;;;;;4.95;3.50;;;;;;;18.71;42.57;102267.63;5011639;28;20033;-74
2022/09/22 05:33:16;;;;;;;5.35;3.60;;;;;;;18.66;42.50;102257.38;5010863;28;20033;-74
2022/09/22 05:35:41;;;;;;;5.88;4.00;;;;;;;18.70;42.63;102265.94;5011491;28;20098;-70
2022/09/22 05:38:06;;;;;;;5.43;3.53;;;;;;;18.67;42.93;102265.19;5011486;28;20037;-79
2022/09/22 05:40:31;;;;;;;5.53;4.00;;;;;;;18.62;42.86;102267.25;5011730;28;20466;-74
2022/09/22 05:42:57;;;;;;;5.63;3.95;;;;;;;18.57;43.11;102260.56;5011367;28;20033;-73
2022/09/22 05:45:22;;;;;;;4.75;3.53;;;;;;;18.64;43.52;102278.59;5011510;28;20030;-72
2022/09/22 05:47:48;;;;;;;5.38;3.80;;;;;;;18.62;43.85;102272.53;5011270;28;20378;-76
2022/09/22 05:50:15;;;;;;;6.50;3.72;;;;;;;18.62;44.04;102267.25;5012584;28;20034;-70
2022/09/22 05:52:41;;;;;;;5.38;3.38;;;;;;;18.63;44.19;102270.75;5015076;28;20038;-70
2022/09/22 05:55:07;;;;;;;5.50;3.78;;;;;;;18.70;43.86;102281.78;5015151;28;20404;-71
2022/09/22 05:57:32;;;;;;;6.70;3.80;;;;;;;18.59;43.99;102250.75;5015104;28;20030;-72
2022/09/22 05:59:58;;;;;;;6.78;3.42;;;;;;;18.73;44.04;102277.16;5015179;28;20045;-72
2022/09/22 06:02:24;;;;;;;6.15;3.47;;;;;;;18.78;44.17;102277.72;5014282;28;20377;-72
2022/09/22 06:04:50;;;;;;;5.28;3.55;;;;;;;18.75;44.00;102264.69;5014740;28;20037;-72
2022/09/22 06:07:16;;;;;;;6.22;3.97;;;;;;;18.76;43.01;102269.06;5015218;28;20029;-71
2022/09/22 06:09:41;;;;;;;5.38;3.67;;;;;;;18.76;43.89;102271.69;5015040;28;20320;-73
2022/09/22 06:12:07;;;;;;;5.45;3.80;;;;;;;18.88;44.08;102279.84;5014501;28;20037;-71
2022/09/22 06:14:33;;;;;;;4.68;3.05;;;;;;;18.93;44.17;102289.19;5014030;28;20311;-71
2022/09/22 06:16:59;;;;;;;6.53;3.50;;;;;;;18.94;44.09;102274.19;5014462;28;20488;-71
2022/09/22 06:19:25;;;;;;;6.13;3.50;;;;;;;18.97;43.97;102268.69;5014834;28;20037;-71
2022/09/22 06:21:51;;;;;;;5.45;3.20;;;;;;;19.08;44.07;102284.72;5014408;28;20800;-74
2022/09/22 06:24:17;;;;;;;5.90;3.50;;;;;;;19.07;43.88;102268.97;5014641;28;20354;-73
2022/09/22 06:26:42;;;;;;;5.95;3.28;;;;;;;18.97;43.73;102248.41;5014376;28;20036;-72
2022/09/22 06:29:09;;;;;;;5.82;3.05;;;;;;;19.17;43.60;102273.59;5014456;28;20413;-72
2022/09/22 06:31:35;;;;;;;5.20;3.20;;;;;;;19.23;43.82;102272.31;5014068;28;20127;-72
2022/09/22 06:34:00;;;;;;;5.55;3.20;;;;;;;19.24;43.88;102267.91;5014765;28;20863;-72
2022/09/22 06:36:31;;;;;;;4.93;3.03;;;;;;;19.27;43.76;102265.91;5013624;28;20057;-73
2022/09/22 06:38:57;;;;;;;5.40;3.30;;;;;;;19.30;43.58;102256.97;5014707;28;20325;-74
2022/09/22 06:41:27;;;;;;;5.60;3.42;;;;;;;19.38;43.65;102275.81;5013946;28;21235;-73
2022/09/22 06:43:56;;;;;;;6.03;2.95;;;;;;;19.35;43.89;102266.28;5014325;28;20045;-74
2022/09/22 06:46:26;;;;;;;5.20;3.08;;;;;;;19.42;43.78;102276.44;5013793;28;20072;-73
2022/09/22 06:48:56;;;;;;;6.85;3.60;;;;;;;19.43;44.01;102272.88;5014905;28;20112;-73
2022/09/22 06:51:25;;;;;;;6.60;3.20;;;;;;;19.44;44.02;102283.34;5012310;28;20469;-75
2022/09/22 06:53:53;;;;;;;7.35;3.58;;;;;;;19.37;44.10;102266.16;5013482;28;20416;-74
2022/09/22 06:56:19;;;;;;;4.90;3.00;;;;;;;19.40;44.04;102271.25;5013310;28;20037;-75
2022/09/22 06:58:44;;;;;;;5.22;3.10;;;;;;;19.37;44.28;102263.53;5019677;28;20108;-76
2022/09/22 07:01:12;;;;;;;5.80;3.53;;;;;;;19.41;44.10;102265.03;5012435;28;20030;-75
2022/09/22 07:03:40;;;;;;;5.13;3.42;;;;;;;19.48;43.79;102271.59;5013589;28;20030;-76
2022/09/22 07:06:07;;;;;;;6.32;3.45;;;;;;;19.50;43.97;102266.22;5013350;28;20040;-72
2022/09/22 07:08:33;;;;;;;5.75;3.67;;;;;;;19.55;44.00;102267.63;5014541;28;20018;-74
2022/09/22 07:11:02;;;;;;;5.00;3.38;;;;;;;19.57;44.04;102256.97;5014098;28;20036;-76
2022/09/22 07:13:29;;;;;;;6.30;3.50;;;;;;;19.65;43.78;102267.03;5014715;28;20024;-75
2022/09/22 07:16:03;;;;;;;6.15;2.78;;;;;;;19.72;43.72;102263.03;5013836;28;20045;-72
2022/09/22 07:18:29;;;;;;;5.22;3.30;;;;;;;19.77;43.77;102268.06;5015035;28;20493;-75
2022/09/22 07:21:07;;;;;;;6.30;3.67;;;;;;;19.72;43.72;102253.28;5014359;28;20072;-78
2022/09/22 07:23:35;;;;;;;5.75;3.30;;;;;;;19.74;43.67;102258.47;5014973;28;20034;-75
2022/09/22 07:26:03;;;;;;;5.32;3.70;;;;;;;19.78;43.86;102264.47;5012980;28;20033;-74
2022/09/22 07:28:30;;;;;;;7.32;3.20;;;;;;;19.84;43.56;102256.97;5013846;28;20054;-75
2022/09/22 07:31:00;;;;;;;5.55;2.92;;;;;;;19.83;43.73;102249.97;5014417;28;20064;-74
2022/09/22 07:33:26;;;;;;;6.72;3.60;;;;;;;19.92;43.55;102251.19;5013434;28;20026;-75
2022/09/22 07:36:07;;;;;;;6.60;3.28;;;;;;;19.92;43.58;102249.38;5013882;28;20026;-75
2022/09/22 07:38:35;;;;;;;5.63;3.20;;;;;;;20.00;43.65;102253.31;5014404;28;20073;-69
2022/09/22 07:41:01;;;;;;;7.25;3.40;;;;;;;19.96;43.50;102252.66;5013840;28;20596;-74
2022/09/22 07:43:27;;;;;;;5.05;2.90;;;;;;;20.02;43.63;102256.69;5012703;28;20049;-74
2022/09/22 07:45:56;;;;;;;5.40;3.20;;;;;;;20.03;43.84;102255.75;5012370;28;20065;-74
2022/09/22 07:48:45;;;;;;;6.35;3.05;;;;;;;20.11;43.50;102259.56;5013303;28;20381;-75
2022/09/22 07:51:23;;;;;;;5.82;3.25;;;;;;;20.01;43.59;102244.41;5028571;28;20385;-73
2022/09/22 07:54:01;;;;;;;5.53;3.17;;;;;;;20.10;43.61;102257.00;5013922;28;20030;-78
2022/09/22 07:56:29;;;;;;;5.55;3.08;;;;;;;20.16;43.64;102261.91;5012700;28;20038;-69
2022/09/22 07:58:54;;;;;;;5.05;2.97;;;;;;;20.16;43.70;102255.78;5011446;28;20034;-69
2022/09/22 08:01:22;;;;;;;5.78;3.17;;;;;;;20.24;43.49;102264.88;5012198;28;20040;-70
2022/09/22 08:03:47;;;;;;;5.68;2.88;;;;;;;20.20;43.83;102252.81;5011655;28;20033;-73
2022/09/22 08:06:15;;;;;;;6.40;3.00;;;;;;;20.28;43.31;102260.19;5011847;28;20088;-70
2022/09/22 08:08:44;;;;;;;5.18;3.08;;;;;;;20.30;43.77;102253.03;5013268;28;20033;-71
2022/09/22 08:11:13;;;;;;;5.10;2.85;;;;;;;20.28;43.46;102249.63;5012658;28;20728;-70
2022/09/22 08:13:41;;;;;;;4.95;2.88;;;;;;;20.29;43.47;102246.88;5011548;28;20524;-69
2022/09/22 08:16:08;;;;;;;7.80;3.10;;;;;;;20.29;43.36;102244.22;5012046;28;20112;-72
2022/09/22 08:18:35;;;;;;;5.82;2.92;;;;;;;20.18;43.45;102230.88;5010273;28;20033;-73
2022/09/22 08:21:00;;;;;;;5.43;2.90;;;;;;;20.13;43.42;102226.84;5011056;28;20029;-71
2022/09/22 08:23:28;;;;;;;7.10;2.92;;;;;;;20.09;43.68;102232.38;5012416;28;20088;-75
2022/09/22 08:25:53;;;;;;;4.53;2.50;;;;;;;20.15;43.73;102243.47;5013088;28;20030;-71
2022/09/22 08:28:18;;;;;;;5.32;2.78;;;;;;;20.10;43.89;102231.38;5012363;28;20057;-72
2022/09/22 08:30:46;;;;;;;5.97;2.80;;;;;;;20.14;43.71;102231.19;5009695;28;20029;-73
2022/09/22 08:33:12;;;;;;;4.82;2.83;;;;;;;20.21;43.94;102240.41;5011962;28;20021;-71
2022/09/22 08:35:37;;;;;;;8.15;2.42;;;;;;;20.21;43.68;102227.19;5011342;28;20034;-75
2022/09/22 08:38:03;;;;;;;6.43;2.65;;;;;;;20.27;43.77;102237.34;5011982;28;20033;-71
2022/09/22 08:40:30;;;;;;;6.25;2.47;;;;;;;20.27;43.81;102235.53;5011402;28;20034;-71
2022/09/22 08:42:58;;;;;;;5.35;2.58;;;;;;;20.25;43.85;102226.88;5011280;28;20085;-76
2022/09/22 08:45:33;;;;;;;4.47;2.40;;;;;;;20.29;43.76;102238.09;5011595;28;20384;-74
2022/09/22 08:53:45;;;;;;;5.32;2.35;;;;;;;20.36;43.80;102246.44;5011031;28;20031;-74
2022/09/22 08:56:35;;;;;;;4.93;2.40;;;;;;;20.35;43.95;102237.66;5010320;28;20025;-77
2022/09/22 08:59:21;;;;;;;4.13;2.20;;;;;;;20.36;43.74;102244.66;5010437;28;20054;-76
2022/09/22 09:01:52;;;;;;;5.25;2.40;;;;;;;20.35;43.60;102244.78;5012124;28;20047;-73
2022/09/22 09:04:49;;;;;;;5.72;2.10;;;;;;;20.33;43.95;102244.88;5011196;28;20120;-75
2022/09/22 09:07:16;;;;;;;3.85;1.92;;;;;;;20.36;44.17;102254.38;5010177;28;20041;-74
2022/09/22 09:10:06;;;;;;;4.70;2.28;;;;;;;20.36;44.07;102246.44;5010565;28;20041;-74
2022/09/22 09:13:02;;;;;;;6.57;2.45;;;;;;;20.30;44.07;102239.78;5009871;28;20025;-74
2022/09/22 09:15:46;;;;;;;5.13;2.25;;;;;;;20.32;44.03;102244.97;5010513;28;21186;-75
2022/09/22 09:18:21;;;;;;;4.32;1.83;;;;;;;20.30;44.09;102235.34;5010098;28;20087;-73
2022/09/22 09:20:48;;;;;;;5.25;2.00;;;;;;;20.38;44.21;102244.56;5011187;28;20246;-75
2022/09/22 09:23:28;;;;;;;5.10;2.10;;;;;;;20.41;44.07;102249.63;5010086;28;20040;-75
2022/09/22 09:25:54;;;;;;;4.30;2.00;;;;;;;20.40;44.21;102242.66;5010587;28;20045;-76
2022/09/22 09:28:34;;;;;;;4.45;2.10;;;;;;;20.39;44.11;102240.94;5010731;28;20049;-76
2022/09/22 09:31:26;;;;;;;6.40;2.25;;;;;;;20.43;44.19;102242.44;5008584;28;20042;-76
2022/09/22 09:34:01;;;;;;;4.57;1.90;;;;;;;20.45;43.91;102248.47;5009447;28;20509;-75
2022/09/22 09:36:33;;;;;;;4.03;1.95;;;;;;;20.37;43.92;102240.22;5009501;28;20595;-74
2022/09/22 09:39:10;;;;;;;4.63;2.10;;;;;;;20.38;43.93;102239.28;5010005;28;20041;-72
2022/09/22 09:41:36;;;;;;;4.78;2.00;;;;;;;20.43;44.04;102247.72;5009673;28;20087;-75
2022/09/22 09:44:03;;;;;;;3.72;2.00;;;;;;;20.41;43.70;102242.53;5009413;28;20025;-76
2022/09/22 09:46:44;;;;;;;3.65;1.80;;;;;;;20.40;43.80;102237.34;5009403;28;20029;-75
2022/09/22 09:49:13;;;;;;;3.30;1.80;;;;;;;20.42;43.73;102235.44;5010657;28;20025;-76
2022/09/22 09:51:42;;;;;;;6.78;2.05;;;;;;;20.40;43.90;102232.91;5009421;28;20033;-76
2022/09/22 09:54:11;;;;;;;3.65;1.80;;;;;;;20.46;43.76;102240.41;5009888;28;20046;-75
2022/09/22 09:57:10;;;;;;;5.57;1.80;;;;;;;20.50;43.79;102241.03;5009148;28;20508;-75
2022/09/22 10:02:28;;;;;;;5.18;1.90;;;;;;;20.38;43.83;102228.69;5010945;28;20056;-71
2022/09/22 10:05:00;;;;;;;5.15;1.80;;;;;;;20.37;43.90;102224.31;5009519;28;20066;-75
2022/09/22 10:07:38;;;;;;;3.67;1.70;;;;;;;20.35;44.18;102224.44;5009855;28;20034;-71
2022/09/22 10:10:27;;;;;;;5.80;1.88;;;;;;;20.26;44.25;102220.59;5010429;28;20034;-72
2022/09/22 10:12:53;;;;;;;3.92;1.60;;;;;;;20.33;44.17;102228.13;5009705;28;20040;-77
2022/09/22 10:15:24;;;;;;;4.82;1.80;;;;;;;20.29;44.37;102220.38;5017905;28;20029;-78
2022/09/22 10:17:50;;;;;;;4.38;1.63;;;;;;;20.38;44.50;102223.38;5016823;28;20036;-82
2022/09/22 10:20:30;;;;;;;4.68;1.83;;;;;;;20.28;44.19;102204.59;5010029;28;20265;-73
2022/09/22 10:23:19;;;;;;;4.65;1.60;;;;;;;20.34;44.25;102204.19;5009543;28;20033;-73
2022/09/22 10:25:45;;;;;;;3.13;1.50;;;;;;;20.40;44.20;102213.53;5010490;28;20121;-74
2022/09/22 10:28:20;;;;;;;6.32;1.60;;;;;;;20.43;43.96;102208.00;5009511;28;20144;-73
2022/09/22 10:31:02;;;;;;;4.57;1.65;;;;;;;20.44;43.88;102207.91;5010374;28;20037;-73
2022/09/22 10:33:28;;;;;;;4.55;1.83;;;;;;;20.44;43.69;102199.09;5011041;28;20081;-74
2022/09/22 10:36:08;;;;;;;5.07;1.63;;;;;;;20.43;43.58;102197.41;5011339;28;20128;-71
2022/09/22 10:38:37;;;;;;;3.55;1.67;;;;;;;20.52;43.98;102207.38;5013558;28;20041;-73
2022/09/22 10:41:06;;;;;;;4.53;1.60;;;;;;;20.50;44.16;102198.66;5014261;28;20472;-74
2022/09/22 10:44:09;;;;;;;4.15;1.50;;;;;;;20.39;44.18;102180.03;5013122;28;20362;-81
2022/09/22 10:47:11;;;;;;;4.43;1.80;;;;;;;20.34;44.47;102180.38;5012583;28;20414;-77
2022/09/22 10:49:44;;;;;;;4.85;1.58;;;;;;;20.37;44.62;102185.44;5029174;28;20033;-79
2022/09/22 10:52:37;;;;;;;4.80;1.57;;;;;;;20.44;44.56;102191.16;5020893;28;20026;-75
2022/09/22 10:55:25;;;;;;;6.53;1.70;;;;;;;20.41;44.48;102178.13;5014135;28;20485;-75
2022/09/22 10:58:03;;;;;;;3.70;1.70;;;;;;;20.54;44.34;102186.09;5014432;28;20038;-74
2022/09/22 11:00:32;;;;;;;3.90;1.55;;;;;;;20.53;44.20;102187.03;5020963;28;20080;-75
2022/09/22 11:03:16;;;;;;;4.00;1.50;;;;;;;20.60;44.20;102186.50;5014414;28;20902;-78
2022/09/22 11:14:34;;;;;;;4.80;1.55;;;;;;;20.51;44.15;102165.94;5012706;28;20055;-77
2022/09/22 11:17:02;;;;;;;3.45;1.23;;;;;;;20.59;44.08;102176.84;5013782;28;20106;-76
2022/09/22 11:19:41;;;;;;;5.85;1.45;;;;;;;20.63;44.18;102174.81;5014058;28;20124;-75
2022/09/22 11:22:23;;;;;;;4.72;1.45;;;;;;;20.65;44.36;102184.38;5012068;28;20036;-73
2022/09/22 11:25:03;;;;;;;3.30;1.40;;;;;;;20.64;43.87;102176.56;5011674;28;20037;-72
2022/09/22 11:27:39;;;;;;;6.07;1.50;;;;;;;20.64;43.99;102171.25;5012444;28;20050;-72
2022/09/22 11:30:11;;;;;;;4.78;1.40;;;;;;;20.67;43.89;102172.84;5011527;28;20085;-75
2022/09/22 11:32:53;;;;;;;4.05;1.38;;;;;;;20.68;43.58;102170.09;5012741;28;20172;-72
2022/09/22 11:35:49;;;;;;;7.93;1.40;;;;;;;20.70;43.55;102165.53;5012978;28;20038;-73
2022/09/22 11:38:20;;;;;;;2.88;1.30;;;;;;;20.72;43.64;102173.34;5013465;28;20120;-72
2022/09/22 11:40:59;;;;;;;3.97;1.30;;;;;;;20.72;43.56;102165.41;5014074;28;20042;-75
2022/09/22 11:43:37;;;;;;;2.13;1.10;;;;;;;20.71;43.47;102158.41;5013854;28;20118;-72
2022/09/22 11:46:08;;;;;;;3.65;1.15;;;;;;;20.72;43.53;102157.47;5013196;28;20038;-72
2022/09/22 11:48:43;;;;;;;4.60;1.33;;;;;;;20.70;43.67;102152.28;5013226;28;20029;-74
2022/09/22 11:51:22;;;;;;;4.97;1.38;;;;;;;20.69;43.55;102147.94;5014114;28;20057;-72
2022/09/22 11:54:00;;;;;;;3.40;1.30;;;;;;;20.50;43.67;102121.03;5012756;28;20026;-72
2022/09/22 11:56:39;;;;;;;2.92;1.10;;;;;;;20.67;43.66;102136.59;5012069;28;20029;-71
2022/09/22 11:59:32;;;;;;;2.92;1.20;;;;;;;20.61;43.48;102126.41;5013190;28;20049;-72